sensor_id;sensor_type;location;lat;lon;timestamp;P1;durP1;ratioP1;P2;durP2;ratioP2
22046;SDS011;11187;49.412;20.956;2022-10-16T00:02:16;29.23;;;26.30;;
22046;SDS011;11187;49.412;20.956;2022-10-16T00:05:10;28.08;;;25.27;;
22046;SDS011;11187;49.412;20.956;2022-10-16T00:07:44;25.70;;;23.35;;
22046;SDS011;11187;49.412;20.956;2022-10-16T00:10:30;26.02;;;23.60;;
22046;SDS011;11187;49.412;20.956;2022-10-16T00:13:04;26.65;;;24.27;;
22046;SDS011;11187;49.412;20.956;2022-10-16T00:15:54;26.85;;;24.35;;
22046;SDS011;11187;49.412;20.956;2022-10-16T00:18:28;27.08;;;24.08;;
22046;SDS011;11187;49.412;20.956;2022-10-16T00:21:18;25.42;;;23.05;;
22046;SDS011;11187;49.412;20.956;2022-10-16T00:24:12;24.73;;;22.48;;
22046;SDS011;11187;49.412;20.956;2022-10-16T00:26:58;26.23;;;23.73;;
22046;SDS011;11187;49.412;20.956;2022-10-16T00:29:32;25.92;;;23.65;;
22046;SDS011;11187;49.412;20.956;2022-10-16T00:32:19;26.10;;;23.95;;
22046;SDS011;11187;49.412;20.956;2022-10-16T00:34:53;28.00;;;25.25;;
22046;SDS011;11187;49.412;20.956;2022-10-16T00:37:39;25.92;;;23.50;;
22046;SDS011;11187;49.412;20.956;2022-10-16T00:40:13;26.52;;;23.92;;
22046;SDS011;11187;49.412;20.956;2022-10-16T00:42:59;25.27;;;22.95;;
22046;SDS011;11187;49.412;20.956;2022-10-16T00:45:33;26.77;;;23.98;;
22046;SDS011;11187;49.412;20.956;2022-10-16T00:48:19;26.83;;;24.42;;
22046;SDS011;11187;49.412;20.956;2022-10-16T00:50:56;26.52;;;24.23;;
22046;SDS011;11187;49.412;20.956;2022-10-16T00:53:51;26.80;;;24.08;;
22046;SDS011;11187;49.412;20.956;2022-10-16T00:56:45;26.60;;;24.10;;
22046;SDS011;11187;49.412;20.956;2022-10-16T00:59:20;26.17;;;23.88;;
22046;SDS011;11187;49.412;20.956;2022-10-16T01:02:12;26.77;;;24.25;;
22046;SDS011;11187;49.412;20.956;2022-10-16T01:04:48;27.05;;;24.20;;
22046;SDS011;11187;49.412;20.956;2022-10-16T01:10:30;28.40;;;25.45;;
22046;SDS011;11187;49.412;20.956;2022-10-16T01:13:32;26.95;;;24.67;;
22046;SDS011;11187;49.412;20.956;2022-10-16T01:16:13;26.60;;;24.08;;
22046;SDS011;11187;49.412;20.956;2022-10-16T01:19:14;28.20;;;25.42;;
22046;SDS011;11187;49.412;20.956;2022-10-16T01:22:12;27.38;;;24.83;;
22046;SDS011;11187;49.412;20.956;2022-10-16T01:24:47;25.92;;;23.65;;
22046;SDS011;11187;49.412;20.956;2022-10-16T01:27:35;29.00;;;26.08;;
22046;SDS011;11187;49.412;20.956;2022-10-16T01:30:14;28.23;;;25.48;;
22046;SDS011;11187;49.412;20.956;2022-10-16T01:33:21;26.13;;;23.55;;
22046;SDS011;11187;49.412;20.956;2022-10-16T01:36:21;27.27;;;24.75;;
22046;SDS011;11187;49.412;20.956;2022-10-16T01:39:20;27.08;;;24.58;;
22046;SDS011;11187;49.412;20.956;2022-10-16T01:42:21;26.25;;;23.73;;
22046;SDS011;11187;49.412;20.956;2022-10-16T01:45:00;27.58;;;24.95;;
22046;SDS011;11187;49.412;20.956;2022-10-16T01:47:50;26.70;;;24.10;;
22046;SDS011;11187;49.412;20.956;2022-10-16T01:50:26;28.35;;;25.45;;
22046;SDS011;11187;49.412;20.956;2022-10-16T01:53:13;29.38;;;26.52;;
22046;SDS011;11187;49.412;20.956;2022-10-16T01:55:49;27.85;;;25.35;;
22046;SDS011;11187;49.412;20.956;2022-10-16T01:58:40;30.77;;;26.17;;
22046;SDS011;11187;49.412;20.956;2022-10-16T02:01:18;26.58;;;24.25;;
22046;SDS011;11187;49.412;20.956;2022-10-16T02:04:14;26.90;;;24.52;;
22046;SDS011;11187;49.412;20.956;2022-10-16T02:06:52;28.23;;;25.20;;
22046;SDS011;11187;49.412;20.956;2022-10-16T02:09:39;27.00;;;24.60;;
22046;SDS011;11187;49.412;20.956;2022-10-16T02:12:19;27.98;;;25.25;;
22046;SDS011;11187;49.412;20.956;2022-10-16T02:15:19;28.58;;;25.95;;
22046;SDS011;11187;49.412;20.956;2022-10-16T02:17:53;26.73;;;24.27;;
22046;SDS011;11187;49.412;20.956;2022-10-16T02:20:45;25.83;;;23.50;;
22046;SDS011;11187;49.412;20.956;2022-10-16T02:23:37;25.88;;;23.38;;
22046;SDS011;11187;49.412;20.956;2022-10-16T02:26:42;27.38;;;24.80;;
22046;SDS011;11187;49.412;20.956;2022-10-16T02:29:42;27.38;;;24.95;;
22046;SDS011;11187;49.412;20.956;2022-10-16T02:32:23;26.48;;;24.33;;
22046;SDS011;11187;49.412;20.956;2022-10-16T02:35:15;27.25;;;24.67;;
22046;SDS011;11187;49.412;20.956;2022-10-16T02:38:14;24.73;;;22.52;;
22046;SDS011;11187;49.412;20.956;2022-10-16T02:41:09;27.77;;;25.27;;
22046;SDS011;11187;49.412;20.956;2022-10-16T02:43:43;25.58;;;23.35;;
22046;SDS011;11187;49.412;20.956;2022-10-16T02:46:29;26.15;;;23.80;;
22046;SDS011;11187;49.412;20.956;2022-10-16T02:49:08;27.35;;;24.73;;
22046;SDS011;11187;49.412;20.956;2022-10-16T02:51:55;27.38;;;24.60;;
22046;SDS011;11187;49.412;20.956;2022-10-16T02:54:29;25.13;;;23.02;;
22046;SDS011;11187;49.412;20.956;2022-10-16T02:57:15;26.42;;;24.00;;
22046;SDS011;11187;49.412;20.956;2022-10-16T02:59:49;27.25;;;24.70;;
22046;SDS011;11187;49.412;20.956;2022-10-16T03:02:36;25.38;;;23.08;;
22046;SDS011;11187;49.412;20.956;2022-10-16T03:05:10;26.42;;;23.83;;
22046;SDS011;11187;49.412;20.956;2022-10-16T03:07:56;25.67;;;23.48;;
22046;SDS011;11187;49.412;20.956;2022-10-16T03:10:33;25.38;;;23.02;;
22046;SDS011;11187;49.412;20.956;2022-10-16T03:13:19;25.98;;;23.58;;
22046;SDS011;11187;49.412;20.956;2022-10-16T03:15:53;25.77;;;23.67;;
22046;SDS011;11187;49.412;20.956;2022-10-16T03:18:49;25.40;;;23.15;;
22046;SDS011;11187;49.412;20.956;2022-10-16T03:21:43;25.70;;;23.42;;
22046;SDS011;11187;49.412;20.956;2022-10-16T03:24:16;25.40;;;23.08;;
22046;SDS011;11187;49.412;20.956;2022-10-16T03:27:02;27.70;;;25.05;;
22046;SDS011;11187;49.412;20.956;2022-10-16T03:29:37;26.42;;;23.88;;
22046;SDS011;11187;49.412;20.956;2022-10-16T03:32:23;24.65;;;22.40;;
22046;SDS011;11187;49.412;20.956;2022-10-16T03:34:58;25.92;;;23.73;;
22046;SDS011;11187;49.412;20.956;2022-10-16T03:37:44;24.20;;;22.20;;
22046;SDS011;11187;49.412;20.956;2022-10-16T03:40:18;25.50;;;23.27;;
22046;SDS011;11187;49.412;20.956;2022-10-16T03:43:06;24.95;;;22.75;;
22046;SDS011;11187;49.412;20.956;2022-10-16T03:45:45;26.10;;;23.60;;
22046;SDS011;11187;49.412;20.956;2022-10-16T03:48:38;25.73;;;23.45;;
22046;SDS011;11187;49.412;20.956;2022-10-16T03:51:32;25.83;;;23.52;;
22046;SDS011;11187;49.412;20.956;2022-10-16T03:54:09;27.27;;;24.65;;
22046;SDS011;11187;49.412;20.956;2022-10-16T03:56:56;26.30;;;24.10;;
22046;SDS011;11187;49.412;20.956;2022-10-16T03:59:30;26.48;;;23.80;;
22046;SDS011;11187;49.412;20.956;2022-10-16T04:02:16;27.13;;;24.23;;
22046;SDS011;11187;49.412;20.956;2022-10-16T04:04:53;27.50;;;25.00;;
22046;SDS011;11187;49.412;20.956;2022-10-16T04:07:39;27.95;;;25.35;;
22046;SDS011;11187;49.412;20.956;2022-10-16T04:10:13;26.20;;;24.08;;
22046;SDS011;11187;49.412;20.956;2022-10-16T04:13:00;29.75;;;26.90;;
22046;SDS011;11187;49.412;20.956;2022-10-16T04:15:33;31.80;;;28.45;;
22046;SDS011;11187;49.412;20.956;2022-10-16T04:18:19;33.75;;;29.33;;
22046;SDS011;11187;49.412;20.956;2022-10-16T04:20:53;31.02;;;27.90;;
22046;SDS011;11187;49.412;20.956;2022-10-16T04:23:41;27.52;;;24.95;;
22046;SDS011;11187;49.412;20.956;2022-10-16T04:26:15;29.95;;;26.77;;
22046;SDS011;11187;49.412;20.956;2022-10-16T04:29:01;28.60;;;25.60;;
22046;SDS011;11187;49.412;20.956;2022-10-16T04:31:35;27.65;;;24.70;;
22046;SDS011;11187;49.412;20.956;2022-10-16T04:34:23;29.25;;;26.50;;
22046;SDS011;11187;49.412;20.956;2022-10-16T04:36:57;28.40;;;25.73;;
22046;SDS011;11187;49.412;20.956;2022-10-16T04:39:51;27.67;;;25.08;;
22046;SDS011;11187;49.412;20.956;2022-10-16T04:42:45;27.92;;;25.33;;
22046;SDS011;11187;49.412;20.956;2022-10-16T04:45:19;29.27;;;26.25;;
22046;SDS011;11187;49.412;20.956;2022-10-16T04:48:12;29.58;;;26.83;;
22046;SDS011;11187;49.412;20.956;2022-10-16T04:51:06;31.33;;;28.15;;
22046;SDS011;11187;49.412;20.956;2022-10-16T04:53:40;30.05;;;27.23;;
22046;SDS011;11187;49.412;20.956;2022-10-16T04:56:33;30.27;;;27.45;;
22046;SDS011;11187;49.412;20.956;2022-10-16T04:59:32;27.63;;;24.92;;
22046;SDS011;11187;49.412;20.956;2022-10-16T05:02:06;27.55;;;24.92;;
22046;SDS011;11187;49.412;20.956;2022-10-16T05:04:54;27.83;;;24.97;;
22046;SDS011;11187;49.412;20.956;2022-10-16T05:07:38;27.17;;;24.07;;
22046;SDS011;11187;49.412;20.956;2022-10-16T05:10:31;27.52;;;24.70;;
22046;SDS011;11187;49.412;20.956;2022-10-16T05:13:05;32.25;;;27.63;;
22046;SDS011;11187;49.412;20.956;2022-10-16T05:15:51;28.38;;;25.58;;
22046;SDS011;11187;49.412;20.956;2022-10-16T05:18:25;25.98;;;23.45;;
22046;SDS011;11187;49.412;20.956;2022-10-16T05:21:19;26.38;;;23.65;;
22046;SDS011;11187;49.412;20.956;2022-10-16T05:24:12;28.17;;;25.17;;
22046;SDS011;11187;49.412;20.956;2022-10-16T05:27:06;32.05;;;26.10;;
22046;SDS011;11187;49.412;20.956;2022-10-16T05:30:05;29.77;;;26.33;;
22046;SDS011;11187;49.412;20.956;2022-10-16T05:32:39;35.58;;;29.45;;
22046;SDS011;11187;49.412;20.956;2022-10-16T05:35:25;34.90;;;29.70;;
22046;SDS011;11187;49.412;20.956;2022-10-16T05:38:13;47.33;;;33.78;;
22046;SDS011;11187;49.412;20.956;2022-10-16T05:41:06;38.88;;;29.85;;
22046;SDS011;11187;49.412;20.956;2022-10-16T05:44:03;44.88;;;33.78;;
22046;SDS011;11187;49.412;20.956;2022-10-16T05:46:37;46.70;;;35.22;;
22046;SDS011;11187;49.412;20.956;2022-10-16T05:49:30;44.38;;;35.63;;
22046;SDS011;11187;49.412;20.956;2022-10-16T05:52:06;42.47;;;32.72;;
22046;SDS011;11187;49.412;20.956;2022-10-16T05:54:53;40.15;;;34.67;;
22046;SDS011;11187;49.412;20.956;2022-10-16T05:57:27;42.88;;;33.60;;
22046;SDS011;11187;49.412;20.956;2022-10-16T06:00:20;43.88;;;34.15;;
22046;SDS011;11187;49.412;20.956;2022-10-16T06:03:14;43.65;;;33.13;;
22046;SDS011;11187;49.412;20.956;2022-10-16T06:05:48;35.10;;;27.13;;
22046;SDS011;11187;49.412;20.956;2022-10-16T06:08:34;28.70;;;25.60;;
22046;SDS011;11187;49.412;20.956;2022-10-16T06:11:10;30.25;;;26.90;;
22046;SDS011;11187;49.412;20.956;2022-10-16T06:14:05;28.35;;;25.23;;
22046;SDS011;11187;49.412;20.956;2022-10-16T06:16:42;32.40;;;24.25;;
22046;SDS011;11187;49.412;20.956;2022-10-16T06:19:35;27.98;;;25.05;;
22046;SDS011;11187;49.412;20.956;2022-10-16T06:22:09;27.90;;;25.10;;
22046;SDS011;11187;49.412;20.956;2022-10-16T06:25:02;28.05;;;24.15;;
22046;SDS011;11187;49.412;20.956;2022-10-16T06:27:57;31.25;;;27.65;;
22046;SDS011;11187;49.412;20.956;2022-10-16T06:30:30;31.13;;;26.77;;
22046;SDS011;11187;49.412;20.956;2022-10-16T06:33:16;28.23;;;25.27;;
22046;SDS011;11187;49.412;20.956;2022-10-16T06:35:50;28.70;;;25.88;;
22046;SDS011;11187;49.412;20.956;2022-10-16T06:38:37;29.52;;;26.27;;
22046;SDS011;11187;49.412;20.956;2022-10-16T06:41:17;29.58;;;25.42;;
22046;SDS011;11187;49.412;20.956;2022-10-16T06:44:16;31.75;;;27.67;;
22046;SDS011;11187;49.412;20.956;2022-10-16T06:46:50;31.60;;;28.50;;
22046;SDS011;11187;49.412;20.956;2022-10-16T06:49:36;30.83;;;27.88;;
22046;SDS011;11187;49.412;20.956;2022-10-16T06:52:19;29.80;;;26.75;;
22046;SDS011;11187;49.412;20.956;2022-10-16T06:55:06;29.05;;;26.05;;
22046;SDS011;11187;49.412;20.956;2022-10-16T06:57:39;30.73;;;27.33;;
22046;SDS011;11187;49.412;20.956;2022-10-16T07:00:25;30.80;;;27.60;;
22046;SDS011;11187;49.412;20.956;2022-10-16T07:02:59;28.70;;;26.00;;
22046;SDS011;11187;49.412;20.956;2022-10-16T07:05:52;31.15;;;28.00;;
22046;SDS011;11187;49.412;20.956;2022-10-16T07:08:26;29.35;;;26.58;;
22046;SDS011;11187;49.412;20.956;2022-10-16T07:11:21;30.13;;;26.73;;
22046;SDS011;11187;49.412;20.956;2022-10-16T07:14:18;30.75;;;27.85;;
22046;SDS011;11187;49.412;20.956;2022-10-16T07:16:53;30.23;;;27.33;;
22046;SDS011;11187;49.412;20.956;2022-10-16T07:19:39;29.33;;;26.13;;
22046;SDS011;11187;49.412;20.956;2022-10-16T07:22:13;26.77;;;24.05;;
22046;SDS011;11187;49.412;20.956;2022-10-16T07:25:07;28.00;;;25.10;;
22046;SDS011;11187;49.412;20.956;2022-10-16T07:27:41;25.63;;;23.13;;
22046;SDS011;11187;49.412;20.956;2022-10-16T07:30:27;27.38;;;24.88;;
22046;SDS011;11187;49.412;20.956;2022-10-16T07:33:01;32.40;;;28.88;;
22046;SDS011;11187;49.412;20.956;2022-10-16T07:35:55;27.15;;;24.52;;
22046;SDS011;11187;49.412;20.956;2022-10-16T07:38:54;28.00;;;24.98;;
22046;SDS011;11187;49.412;20.956;2022-10-16T07:41:28;26.02;;;23.35;;
22046;SDS011;11187;49.412;20.956;2022-10-16T07:44:22;25.38;;;22.88;;
22046;SDS011;11187;49.412;20.956;2022-10-16T07:46:58;25.33;;;22.85;;
22046;SDS011;11187;49.412;20.956;2022-10-16T07:49:51;25.73;;;23.15;;
22046;SDS011;11187;49.412;20.956;2022-10-16T07:52:45;25.92;;;23.30;;
22046;SDS011;11187;49.412;20.956;2022-10-16T07:55:19;25.52;;;22.92;;
22046;SDS011;11187;49.412;20.956;2022-10-16T07:58:05;25.67;;;22.98;;
22046;SDS011;11187;49.412;20.956;2022-10-16T08:00:39;27.27;;;24.45;;
22046;SDS011;11187;49.412;20.956;2022-10-16T08:03:33;26.10;;;23.35;;
22046;SDS011;11187;49.412;20.956;2022-10-16T08:06:06;29.17;;;24.38;;
22046;SDS011;11187;49.412;20.956;2022-10-16T08:09:07;26.95;;;24.33;;
22046;SDS011;11187;49.412;20.956;2022-10-16T08:12:02;26.85;;;24.27;;
22046;SDS011;11187;49.412;20.956;2022-10-16T08:14:35;23.52;;;21.20;;
22046;SDS011;11187;49.412;20.956;2022-10-16T08:17:25;26.58;;;24.08;;
22046;SDS011;11187;49.412;20.956;2022-10-16T08:19:59;27.48;;;24.63;;
22046;SDS011;11187;49.412;20.956;2022-10-16T08:22:45;25.08;;;22.58;;
22046;SDS011;11187;49.412;20.956;2022-10-16T08:25:19;26.13;;;23.35;;
22046;SDS011;11187;49.412;20.956;2022-10-16T08:28:15;26.38;;;23.75;;
22046;SDS011;11187;49.412;20.956;2022-10-16T08:30:49;25.10;;;22.70;;
22046;SDS011;11187;49.412;20.956;2022-10-16T08:33:44;25.17;;;22.70;;
22046;SDS011;11187;49.412;20.956;2022-10-16T08:36:39;26.50;;;23.90;;
22046;SDS011;11187;49.412;20.956;2022-10-16T08:39:33;26.30;;;23.52;;
22046;SDS011;11187;49.412;20.956;2022-10-16T08:42:28;25.85;;;23.48;;
22046;SDS011;11187;49.412;20.956;2022-10-16T08:45:40;25.25;;;22.73;;
22046;SDS011;11187;49.412;20.956;2022-10-16T08:48:48;26.08;;;23.35;;
22046;SDS011;11187;49.412;20.956;2022-10-16T08:51:43;24.00;;;21.70;;
22046;SDS011;11187;49.412;20.956;2022-10-16T08:54:43;23.42;;;21.15;;
22046;SDS011;11187;49.412;20.956;2022-10-16T08:57:20;26.88;;;24.13;;
22046;SDS011;11187;49.412;20.956;2022-10-16T09:00:12;25.95;;;23.38;;
22046;SDS011;11187;49.412;20.956;2022-10-16T09:05:53;26.70;;;24.35;;
22046;SDS011;11187;49.412;20.956;2022-10-16T09:17:21;25.38;;;23.02;;
22046;SDS011;11187;49.412;20.956;2022-10-16T09:23:26;25.63;;;22.15;;
22046;SDS011;11187;49.412;20.956;2022-10-16T09:26:22;24.88;;;22.48;;
22046;SDS011;11187;49.412;20.956;2022-10-16T09:28:55;26.42;;;23.92;;
22046;SDS011;11187;49.412;20.956;2022-10-16T09:31:42;24.20;;;22.02;;
22046;SDS011;11187;49.412;20.956;2022-10-16T09:37:30;25.00;;;22.35;;
22046;SDS011;11187;49.412;20.956;2022-10-16T09:43:02;25.35;;;22.48;;
22046;SDS011;11187;49.412;20.956;2022-10-16T09:45:55;24.02;;;21.60;;
22046;SDS011;11187;49.412;20.956;2022-10-16T09:51:33;26.73;;;24.02;;
22046;SDS011;11187;49.412;20.956;2022-10-16T09:57:05;25.40;;;22.85;;
22046;SDS011;11187;49.412;20.956;2022-10-16T09:59:52;25.60;;;21.70;;
22046;SDS011;11187;49.412;20.956;2022-10-16T10:02:50;24.30;;;21.95;;
22046;SDS011;11187;49.412;20.956;2022-10-16T10:05:47;25.67;;;23.40;;
22046;SDS011;11187;49.412;20.956;2022-10-16T10:08:26;25.30;;;22.80;;
22046;SDS011;11187;49.412;20.956;2022-10-16T10:11:13;26.00;;;23.15;;
22046;SDS011;11187;49.412;20.956;2022-10-16T10:13:46;25.90;;;23.00;;
22046;SDS011;11187;49.412;20.956;2022-10-16T10:16:40;24.45;;;22.15;;
22046;SDS011;11187;49.412;20.956;2022-10-16T10:19:44;28.92;;;23.75;;
22046;SDS011;11187;49.412;20.956;2022-10-16T10:31:20;24.70;;;22.05;;
22046;SDS011;11187;49.412;20.956;2022-10-16T10:34:04;23.85;;;21.55;;
22046;SDS011;11187;49.412;20.956;2022-10-16T10:37:25;26.20;;;23.67;;
22046;SDS011;11187;49.412;20.956;2022-10-16T10:46:13;23.65;;;21.40;;
22046;SDS011;11187;49.412;20.956;2022-10-16T10:51:55;25.85;;;23.42;;
22046;SDS011;11187;49.412;20.956;2022-10-16T10:54:56;24.08;;;21.88;;
22046;SDS011;11187;49.412;20.956;2022-10-16T11:07:05;25.52;;;22.90;;
22046;SDS011;11187;49.412;20.956;2022-10-16T11:10:13;23.35;;;21.23;;
22046;SDS011;11187;49.412;20.956;2022-10-16T11:16:27;22.95;;;20.70;;
22046;SDS011;11187;49.412;20.956;2022-10-16T11:19:37;25.70;;;23.35;;
22046;SDS011;11187;49.412;20.956;2022-10-16T11:25:32;22.77;;;20.60;;
22046;SDS011;11187;49.412;20.956;2022-10-16T11:37:31;22.70;;;20.75;;
22046;SDS011;11187;49.412;20.956;2022-10-16T11:40:33;22.17;;;20.27;;
22046;SDS011;11187;49.412;20.956;2022-10-16T11:43:36;27.67;;;25.23;;
22046;SDS011;11187;49.412;20.956;2022-10-16T11:46:36;28.48;;;25.95;;
22046;SDS011;11187;49.412;20.956;2022-10-16T11:49:47;24.70;;;21.60;;
22046;SDS011;11187;49.412;20.956;2022-10-16T11:52:29;26.70;;;24.42;;
22046;SDS011;11187;49.412;20.956;2022-10-16T11:55:47;26.92;;;24.83;;
22046;SDS011;11187;49.412;20.956;2022-10-16T11:58:30;28.58;;;26.00;;
22046;SDS011;11187;49.412;20.956;2022-10-16T12:01:24;23.55;;;21.30;;
22046;SDS011;11187;49.412;20.956;2022-10-16T12:07:24;25.38;;;23.20;;
22046;SDS011;11187;49.412;20.956;2022-10-16T12:13:29;27.33;;;24.90;;
22046;SDS011;11187;49.412;20.956;2022-10-16T12:19:10;24.08;;;21.70;;
22046;SDS011;11187;49.412;20.956;2022-10-16T12:21:48;23.35;;;21.25;;
22046;SDS011;11187;49.412;20.956;2022-10-16T12:24:43;25.13;;;22.55;;
22046;SDS011;11187;49.412;20.956;2022-10-16T12:27:37;22.77;;;20.58;;
22046;SDS011;11187;49.412;20.956;2022-10-16T12:30:33;21.75;;;19.70;;
22046;SDS011;11187;49.412;20.956;2022-10-16T12:33:28;22.83;;;20.88;;
22046;SDS011;11187;49.412;20.956;2022-10-16T12:36:33;21.90;;;19.77;;
22046;SDS011;11187;49.412;20.956;2022-10-16T12:39:28;22.15;;;19.95;;
22046;SDS011;11187;49.412;20.956;2022-10-16T12:42:03;22.55;;;20.63;;
22046;SDS011;11187;49.412;20.956;2022-10-16T12:44:51;23.90;;;21.60;;
22046;SDS011;11187;49.412;20.956;2022-10-16T12:50:27;25.10;;;22.42;;
22046;SDS011;11187;49.412;20.956;2022-10-16T12:53:17;23.98;;;21.48;;
22046;SDS011;11187;49.412;20.956;2022-10-16T12:58:51;25.27;;;22.58;;
22046;SDS011;11187;49.412;20.956;2022-10-16T13:11:15;21.40;;;19.13;;
22046;SDS011;11187;49.412;20.956;2022-10-16T13:19:46;22.08;;;19.23;;
22046;SDS011;11187;49.412;20.956;2022-10-16T13:22:46;22.25;;;20.00;;
22046;SDS011;11187;49.412;20.956;2022-10-16T13:28:38;20.73;;;18.52;;
22046;SDS011;11187;49.412;20.956;2022-10-16T13:31:14;21.52;;;17.95;;
22046;SDS011;11187;49.412;20.956;2022-10-16T13:34:14;23.67;;;21.48;;
22046;SDS011;11187;49.412;20.956;2022-10-16T13:36:51;19.65;;;17.75;;
22046;SDS011;11187;49.412;20.956;2022-10-16T13:39:46;21.95;;;19.83;;
22046;SDS011;11187;49.412;20.956;2022-10-16T13:42:23;20.55;;;18.48;;
22046;SDS011;11187;49.412;20.956;2022-10-16T13:45:20;20.38;;;17.88;;
22046;SDS011;11187;49.412;20.956;2022-10-16T13:48:02;20.05;;;18.10;;
22046;SDS011;11187;49.412;20.956;2022-10-16T13:51:01;21.83;;;19.60;;
22046;SDS011;11187;49.412;20.956;2022-10-16T13:53:39;21.33;;;19.17;;
22046;SDS011;11187;49.412;20.956;2022-10-16T13:56:28;19.92;;;18.02;;
22046;SDS011;11187;49.412;20.956;2022-10-16T13:59:04;20.25;;;18.30;;
22046;SDS011;11187;49.412;20.956;2022-10-16T14:02:00;18.98;;;17.17;;
22046;SDS011;11187;49.412;20.956;2022-10-16T14:05:04;20.70;;;18.60;;
22046;SDS011;11187;49.412;20.956;2022-10-16T14:07:42;25.13;;;20.73;;
22046;SDS011;11187;49.412;20.956;2022-10-16T14:10:36;23.13;;;19.42;;
22046;SDS011;11187;49.412;20.956;2022-10-16T14:13:12;23.30;;;18.85;;
22046;SDS011;11187;49.412;20.956;2022-10-16T14:16:09;21.85;;;18.08;;
22046;SDS011;11187;49.412;20.956;2022-10-16T14:18:55;18.88;;;17.10;;
22046;SDS011;11187;49.412;20.956;2022-10-16T14:21:53;18.70;;;17.10;;
22046;SDS011;11187;49.412;20.956;2022-10-16T14:24:36;19.20;;;17.42;;
22046;SDS011;11187;49.412;20.956;2022-10-16T14:27:35;18.23;;;16.73;;
22046;SDS011;11187;49.412;20.956;2022-10-16T14:30:30;18.20;;;16.65;;
22046;SDS011;11187;49.412;20.956;2022-10-16T14:39:04;20.95;;;19.33;;
22046;SDS011;11187;49.412;20.956;2022-10-16T14:41:46;19.13;;;17.23;;
22046;SDS011;11187;49.412;20.956;2022-10-16T14:44:35;18.63;;;16.98;;
22046;SDS011;11187;49.412;20.956;2022-10-16T14:47:09;16.30;;;15.00;;
22046;SDS011;11187;49.412;20.956;2022-10-16T14:50:02;18.58;;;16.88;;
22046;SDS011;11187;49.412;20.956;2022-10-16T14:52:35;17.55;;;15.88;;
22046;SDS011;11187;49.412;20.956;2022-10-16T14:55:23;20.13;;;18.33;;
22046;SDS011;11187;49.412;20.956;2022-10-16T14:57:57;18.73;;;17.13;;
22046;SDS011;11187;49.412;20.956;2022-10-16T15:00:44;17.90;;;16.20;;
22046;SDS011;11187;49.412;20.956;2022-10-16T15:03:17;19.63;;;17.75;;
22046;SDS011;11187;49.412;20.956;2022-10-16T15:06:07;19.73;;;17.77;;
22046;SDS011;11187;49.412;20.956;2022-10-16T15:08:43;19.25;;;16.13;;
22046;SDS011;11187;49.412;20.956;2022-10-16T15:11:30;18.25;;;16.63;;
22046;SDS011;11187;49.412;20.956;2022-10-16T15:14:05;18.15;;;16.27;;
22046;SDS011;11187;49.412;20.956;2022-10-16T15:16:59;19.98;;;17.85;;
22046;SDS011;11187;49.412;20.956;2022-10-16T15:19:57;19.13;;;17.30;;
22046;SDS011;11187;49.412;20.956;2022-10-16T15:22:31;19.92;;;17.98;;
22046;SDS011;11187;49.412;20.956;2022-10-16T15:25:29;19.85;;;18.02;;
22046;SDS011;11187;49.412;20.956;2022-10-16T15:28:05;21.63;;;19.80;;
22046;SDS011;11187;49.412;20.956;2022-10-16T15:30:53;18.80;;;16.95;;
22046;SDS011;11187;49.412;20.956;2022-10-16T15:33:27;18.92;;;17.15;;
22046;SDS011;11187;49.412;20.956;2022-10-16T15:36:25;22.25;;;20.17;;
22046;SDS011;11187;49.412;20.956;2022-10-16T15:39:23;21.38;;;19.40;;
22046;SDS011;11187;49.412;20.956;2022-10-16T15:42:20;27.05;;;20.83;;
22046;SDS011;11187;49.412;20.956;2022-10-16T15:45:14;20.23;;;18.20;;
22046;SDS011;11187;49.412;20.956;2022-10-16T15:47:47;21.35;;;19.33;;
22046;SDS011;11187;49.412;20.956;2022-10-16T15:50:34;22.48;;;20.17;;
22046;SDS011;11187;49.412;20.956;2022-10-16T15:53:15;21.13;;;18.88;;
22046;SDS011;11187;49.412;20.956;2022-10-16T15:56:02;21.75;;;19.45;;
22046;SDS011;11187;49.412;20.956;2022-10-16T15:58:36;24.23;;;21.70;;
22046;SDS011;11187;49.412;20.956;2022-10-16T16:01:23;24.30;;;21.67;;
22046;SDS011;11187;49.412;20.956;2022-10-16T16:03:56;22.88;;;20.52;;
22046;SDS011;11187;49.412;20.956;2022-10-16T16:07:04;24.42;;;21.83;;
22046;SDS011;11187;49.412;20.956;2022-10-16T16:09:39;26.75;;;21.10;;
22046;SDS011;11187;49.412;20.956;2022-10-16T16:12:33;22.10;;;20.02;;
22046;SDS011;11187;49.412;20.956;2022-10-16T16:15:27;22.40;;;20.38;;
22046;SDS011;11187;49.412;20.956;2022-10-16T16:18:00;21.92;;;20.08;;
22046;SDS011;11187;49.412;20.956;2022-10-16T16:20:56;21.50;;;19.48;;
22046;SDS011;11187;49.412;20.956;2022-10-16T16:23:52;20.58;;;18.73;;
22046;SDS011;11187;49.412;20.956;2022-10-16T16:26:26;22.45;;;20.52;;
22046;SDS011;11187;49.412;20.956;2022-10-16T16:29:22;24.73;;;22.40;;
22046;SDS011;11187;49.412;20.956;2022-10-16T16:31:55;26.90;;;24.05;;
22046;SDS011;11187;49.412;20.956;2022-10-16T16:34:42;29.13;;;25.73;;
22046;SDS011;11187;49.412;20.956;2022-10-16T16:37:15;36.45;;;29.80;;
22046;SDS011;11187;49.412;20.956;2022-10-16T16:40:09;48.90;;;36.97;;
22046;SDS011;11187;49.412;20.956;2022-10-16T16:43:03;41.78;;;33.33;;
22046;SDS011;11187;49.412;20.956;2022-10-16T16:45:36;33.85;;;30.00;;
22046;SDS011;11187;49.412;20.956;2022-10-16T16:48:31;32.65;;;28.08;;
22046;SDS011;11187;49.412;20.956;2022-10-16T16:51:05;29.48;;;26.27;;
22046;SDS011;11187;49.412;20.956;2022-10-16T16:54:02;29.13;;;26.10;;
22046;SDS011;11187;49.412;20.956;2022-10-16T16:56:35;27.88;;;25.27;;
22046;SDS011;11187;49.412;20.956;2022-10-16T16:59:25;26.73;;;23.85;;
22046;SDS011;11187;49.412;20.956;2022-10-16T17:01:58;28.42;;;22.10;;
22046;SDS011;11187;49.412;20.956;2022-10-16T17:04:53;24.20;;;21.70;;
22046;SDS011;11187;49.412;20.956;2022-10-16T17:07:47;25.15;;;22.50;;
22046;SDS011;11187;49.412;20.956;2022-10-16T17:10:44;26.08;;;21.73;;
22046;SDS011;11187;49.412;20.956;2022-10-16T17:13:17;24.00;;;21.52;;
22046;SDS011;11187;49.412;20.956;2022-10-16T17:16:12;29.20;;;24.00;;
22046;SDS011;11187;49.412;20.956;2022-10-16T17:19:07;26.55;;;23.75;;
22046;SDS011;11187;49.412;20.956;2022-10-16T17:21:41;23.13;;;20.83;;
22046;SDS011;11187;49.412;20.956;2022-10-16T17:24:28;24.95;;;22.52;;
22046;SDS011;11187;49.412;20.956;2022-10-16T17:27:01;26.08;;;23.30;;
22046;SDS011;11187;49.412;20.956;2022-10-16T17:29:51;26.35;;;23.38;;
22046;SDS011;11187;49.412;20.956;2022-10-16T17:32:24;26.38;;;21.45;;
22046;SDS011;11187;49.412;20.956;2022-10-16T17:35:11;24.55;;;22.17;;
22046;SDS011;11187;49.412;20.956;2022-10-16T17:37:44;25.92;;;23.25;;
22046;SDS011;11187;49.412;20.956;2022-10-16T17:40:31;26.45;;;21.33;;
22046;SDS011;11187;49.412;20.956;2022-10-16T17:43:04;26.55;;;23.70;;
22046;SDS011;11187;49.412;20.956;2022-10-16T17:45:52;24.83;;;22.15;;
22046;SDS011;11187;49.412;20.956;2022-10-16T17:48:25;24.27;;;21.65;;
22046;SDS011;11187;49.412;20.956;2022-10-16T17:51:12;22.13;;;19.73;;